Pleasant View, CO (81331)

5:10 PM MDT on September 03, 2015 (GMT -0600)
Cahone (2.5 Miles NNE) | | Change Station
CLOSE
Current Station
Personal Weather Station
Location: Cahone, CO
Elevation: 6870 ft
Nearby Weather Stations

Elev 6870 ft 37.69 °N, 108.80 °W | Updated 2 seconds ago

Partly Cloudy
Partly Cloudy
78.3 °F
Feels Like 78 °F
N
5.0
Wind Variable Wind from SSW
Gusts 6.0 mph

Today
High -- | Low -- °F
--% Chance of Precip.
Yesterday
High -- | Low -- °F
Precip. -- in
6:47 AM 7:41 PM
Waning Gibbous, 66% visible
Pressure 29.79 in
Visibility 10.0 miles
Clouds Few 10000 ft
Heat Index 78 °F
Dew Point 34 °F
Humidity 20%
Rainfall 0.02 in
Snow Depth Not available.
UV 4 out of 12
Pollen 6.00 out of 12
Air Quality Not available.
Flu Activity Not available.
METAR KCEZ 032253Z AUTO 21010G18KT 10SM FEW100 28/03 A3004 RMK AO2 SLP088 T02830033
Pressure 29.79 in
Visibility 10.0 miles
Clouds Few 10000 ft
Heat Index 78 °F
Dew Point 34 °F
Humidity 20%
Rainfall 0.02 in
Snow Depth Not available.
UV 4 out of 12
Pollen 6.00 out of 12
Air Quality Not available.
Flu Activity Not available.
METAR KCEZ 032253Z AUTO 21010G18KT 10SM FEW100 28/03 A3004 RMK AO2 SLP088 T02830033

10-Day Weather Forecast

×

Almanac

Astronomy

Sep. 03, 2015 Rise Set
Actual Time
Civil Twilight
Nautical Twilight
Astronomical Twilight
Moon
Length of Visible Light
Length of Day
Tomorrow will be .
, % of the Moon is Illuminated

Today's Extremes

State Highs State Lows

Community

WunderPhotos

Upload Photos

1,852,060 photos uploaded!

WunderBlogs® & News

Nearby

Air Quality

  Air Quality AQ Index Pollutant
Not available.

Snow Depth

Station Depth Elevation

Earthquake Activity

City Distance Mag. Time & Date
Minimum magnitude displayed is 2.5.

Coastal Water Temperatures

Place Temperature

Stations

Nearby Weather Stations

Station Location Temp. Windchill Dew Point Humidity Wind Precip. Elev Updated Type